createdAt,value
2018-05-08T00:00:51.880Z,14.31
2018-05-08T00:01:51.907Z,14.34
2018-05-08T00:02:51.939Z,14.19
2018-05-08T00:04:51.974Z,14.23
2018-05-08T00:05:51.987Z,14.15
2018-05-08T00:06:52.014Z,14.18
2018-05-08T00:07:52.037Z,14.20
2018-05-08T00:08:52.119Z,14.18
2018-05-08T00:09:52.077Z,14.12
2018-05-08T00:10:52.092Z,14.11
2018-05-08T00:11:52.118Z,14.04
2018-05-08T00:12:52.144Z,14.05
2018-05-08T00:13:52.161Z,14.05
2018-05-08T00:14:52.183Z,14.03
2018-05-08T00:15:52.194Z,14.00
2018-05-08T00:16:52.221Z,14.03
2018-05-08T00:17:52.247Z,13.98
2018-05-08T00:18:52.260Z,13.97
2018-05-08T00:19:52.299Z,13.91
2018-05-08T00:20:52.300Z,13.80
2018-05-08T00:21:52.336Z,13.91
2018-05-08T00:22:52.339Z,13.91
2018-05-08T00:23:52.368Z,13.82
2018-05-08T00:24:52.406Z,13.85
2018-05-08T00:25:52.408Z,13.83
2018-05-08T00:26:52.433Z,13.83
2018-05-08T00:27:52.444Z,13.85
2018-05-08T00:28:52.470Z,13.85
2018-05-08T00:29:52.498Z,13.82
2018-05-08T00:30:52.510Z,13.82
2018-05-08T00:31:52.538Z,13.83
2018-05-08T00:32:52.564Z,13.79
2018-05-08T00:33:52.577Z,13.78
2018-05-08T00:34:52.591Z,13.73
2018-05-08T00:35:52.617Z,13.83
2018-05-08T00:36:52.643Z,13.64
2018-05-08T00:38:52.694Z,13.68
2018-05-08T00:39:52.695Z,13.70
2018-05-08T00:40:52.720Z,13.64
2018-05-08T00:41:52.736Z,13.71
2018-05-08T00:42:52.759Z,13.68
2018-05-08T00:43:52.785Z,13.64
2018-05-08T00:44:52.801Z,13.62
2018-05-08T00:45:52.827Z,13.55
2018-05-08T00:46:52.844Z,13.55
2018-05-08T00:47:52.866Z,13.60
2018-05-08T00:48:52.878Z,13.52
2018-05-08T00:49:52.903Z,13.54
2018-05-08T00:50:52.917Z,13.58
2018-05-08T00:52:52.981Z,13.60
2018-05-08T00:53:52.982Z,13.54
2018-05-08T00:54:53.008Z,13.49
2018-05-08T00:55:53.021Z,13.54
2018-05-08T00:56:53.047Z,13.54
2018-05-08T00:57:53.075Z,13.45
2018-05-08T00:58:53.089Z,13.50
2018-05-08T00:59:53.115Z,13.49
2018-05-08T01:01:53.154Z,13.43
2018-05-08T01:02:53.166Z,13.49
2018-05-08T01:03:53.192Z,13.49
2018-05-08T01:04:53.289Z,13.47
2018-05-08T01:06:53.246Z,13.52
2018-05-08T01:07:53.273Z,13.42
2018-05-08T01:08:53.299Z,13.49
2018-05-08T01:10:53.337Z,13.36
2018-05-08T01:11:53.351Z,13.43
2018-05-08T01:12:53.378Z,13.45
2018-05-08T01:13:53.390Z,13.40
2018-05-08T01:14:53.417Z,13.45
2018-05-08T01:15:53.442Z,13.39
2018-05-08T01:16:53.455Z,13.40
2018-05-08T01:17:53.480Z,13.33
2018-05-08T01:18:53.492Z,13.30
2018-05-08T01:19:53.520Z,13.33
2018-05-08T01:20:53.536Z,13.33
2018-05-08T01:21:53.562Z,13.31
2018-05-08T01:22:53.575Z,13.23
2018-05-08T01:23:53.600Z,13.31
2018-05-08T01:24:53.624Z,13.21
2018-05-08T01:25:53.641Z,13.27
2018-05-08T01:26:53.665Z,13.28
2018-05-08T01:27:53.677Z,13.27
2018-05-08T01:28:53.704Z,13.26
2018-05-08T01:29:53.716Z,13.27
2018-05-08T01:30:53.746Z,13.21
2018-05-08T01:31:53.756Z,13.24
2018-05-08T01:32:53.783Z,13.17
2018-05-08T01:33:53.809Z,13.12
2018-05-08T01:34:53.823Z,13.20
2018-05-08T01:35:53.838Z,13.13
2018-05-08T01:36:53.860Z,13.24
2018-05-08T01:37:53.886Z,13.19
2018-05-08T01:38:53.906Z,13.19
2018-05-08T01:39:53.930Z,13.12
2018-05-08T01:40:53.941Z,13.17
2018-05-08T01:41:53.967Z,13.13
2018-05-08T01:42:53.982Z,13.17
2018-05-08T01:43:54.007Z,13.20
2018-05-08T01:44:54.020Z,13.11
2018-05-08T01:45:54.046Z,13.20
2018-05-08T01:46:54.060Z,13.08
2018-05-08T01:47:54.086Z,13.16
2018-05-08T01:48:54.110Z,13.19
2018-05-08T01:49:54.123Z,13.19
2018-05-08T01:50:54.150Z,13.19
2018-05-08T01:51:54.163Z,13.20
2018-05-08T01:52:54.192Z,13.13
2018-05-08T01:53:54.203Z,13.13
2018-05-08T01:54:54.234Z,13.11
2018-05-08T01:55:54.244Z,13.08
2018-05-08T01:56:54.267Z,13.12
2018-05-08T01:57:54.284Z,13.13
2018-05-08T01:58:54.308Z,13.12
2018-05-08T01:59:54.333Z,13.12
2018-05-08T02:00:54.409Z,13.16
2018-05-08T02:01:54.373Z,13.12
2018-05-08T02:02:54.386Z,13.16
2018-05-08T02:03:54.426Z,13.11
2018-05-08T02:04:54.428Z,13.12
2018-05-08T02:05:54.454Z,13.16
2018-05-08T02:06:54.467Z,13.13
2018-05-08T02:07:54.494Z,13.11
2018-05-08T02:08:54.509Z,13.19
2018-05-08T02:09:54.530Z,13.13
2018-05-08T02:10:54.544Z,13.13
2018-05-08T02:11:54.569Z,13.16
2018-05-08T02:12:54.597Z,13.11
2018-05-08T02:13:54.612Z,13.09
2018-05-08T02:14:54.638Z,13.20
2018-05-08T02:15:54.650Z,13.23
2018-05-08T02:16:54.674Z,13.19
2018-05-08T02:17:54.688Z,13.17
2018-05-08T02:18:54.717Z,13.11
2018-05-08T02:19:54.727Z,13.16
2018-05-08T02:20:54.755Z,13.23
2018-05-08T02:21:54.771Z,13.16
2018-05-08T02:22:54.800Z,13.17
2018-05-08T02:23:54.808Z,13.19
2018-05-08T02:24:54.832Z,13.09
2018-05-08T02:25:54.945Z,13.12
2018-05-08T02:26:54.880Z,13.11
2018-05-08T02:27:54.886Z,13.06
2018-05-08T02:28:54.914Z,13.12
2018-05-08T02:29:54.940Z,13.13
2018-05-08T02:30:55.155Z,13.17
2018-05-08T02:31:54.980Z,13.03
2018-05-08T02:32:54.992Z,13.16
2018-05-08T02:33:55.020Z,13.13
2018-05-08T02:34:55.036Z,13.17
2018-05-08T02:35:55.058Z,13.17
2018-05-08T02:36:55.070Z,13.12
2018-05-08T02:38:55.113Z,13.09
2018-05-08T02:39:55.135Z,13.06
2018-05-08T02:40:55.148Z,13.13
2018-05-08T02:41:55.175Z,13.13
2018-05-08T02:42:55.190Z,12.94
2018-05-08T02:43:55.216Z,13.01
2018-05-08T02:44:55.241Z,13.03
2018-05-08T02:45:55.253Z,13.02
2018-05-08T02:46:55.278Z,13.03
2018-05-08T02:47:55.291Z,12.99
2018-05-08T02:48:55.521Z,13.02
2018-05-08T02:50:55.357Z,13.03
2018-05-08T02:51:55.375Z,12.91
2018-05-08T02:52:55.397Z,12.94
2018-05-08T02:53:55.410Z,12.95
2018-05-08T02:54:55.438Z,12.87
2018-05-08T02:55:55.453Z,12.94
2018-05-08T02:56:55.478Z,12.93
2018-05-08T02:57:55.494Z,12.95
2018-05-08T02:58:55.515Z,12.91
2018-05-08T02:59:55.541Z,12.91
2018-05-08T03:00:55.556Z,12.84
2018-05-08T03:01:55.571Z,12.84
2018-05-08T03:02:55.599Z,12.87
2018-05-08T03:03:55.611Z,12.87
2018-05-08T03:04:55.636Z,12.78
2018-05-08T03:05:55.668Z,12.80
2018-05-08T03:06:55.676Z,12.80
2018-05-08T03:07:55.701Z,12.73
2018-05-08T03:08:55.716Z,12.80
2018-05-08T03:09:55.741Z,12.81
2018-05-08T03:10:55.753Z,12.73
2018-05-08T03:11:55.779Z,12.70
2018-05-08T03:12:55.792Z,12.76
2018-05-08T03:13:55.818Z,12.75
2018-05-08T03:14:55.832Z,12.75
2018-05-08T03:15:55.858Z,12.78
2018-05-08T03:16:55.872Z,12.75
2018-05-08T03:17:55.898Z,12.73
2018-05-08T03:18:55.922Z,12.78
2018-05-08T03:19:55.948Z,12.76
2018-05-08T03:20:56.151Z,12.75
2018-05-08T03:21:55.975Z,12.63
2018-05-08T03:22:55.987Z,12.73
2018-05-08T03:23:56.016Z,12.69
2018-05-08T03:24:56.030Z,12.70
2018-05-08T03:25:56.053Z,12.70
2018-05-08T03:26:56.068Z,12.57
2018-05-08T03:27:56.094Z,12.62
2018-05-08T03:28:56.109Z,12.50
2018-05-08T03:29:56.135Z,12.66
2018-05-08T03:30:56.146Z,12.55
2018-05-08T03:31:56.171Z,12.50
2018-05-08T03:32:56.197Z,12.57
2018-05-08T03:33:56.214Z,12.58
2018-05-08T03:34:56.227Z,12.62
2018-05-08T03:35:56.252Z,12.53
2018-05-08T03:36:56.278Z,12.55
2018-05-08T03:37:56.293Z,12.54
2018-05-08T03:38:56.669Z,12.50
2018-05-08T03:39:56.332Z,12.53
2018-05-08T03:40:56.358Z,12.47
2018-05-08T03:41:56.373Z,12.50
2018-05-08T03:42:56.396Z,12.48
2018-05-08T03:43:56.408Z,12.44
2018-05-08T03:44:56.435Z,12.39
2018-05-08T03:45:56.448Z,12.43
2018-05-08T03:46:56.477Z,12.37
2018-05-08T03:48:56.514Z,12.45
2018-05-08T03:49:56.531Z,12.47
2018-05-08T03:50:56.556Z,12.39
2018-05-08T03:51:56.567Z,12.40
2018-05-08T03:52:56.591Z,12.39
2018-05-08T03:53:56.605Z,12.43
2018-05-08T03:54:56.632Z,12.47
2018-05-08T03:55:56.645Z,12.43
2018-05-08T03:56:56.675Z,12.40
2018-05-08T03:57:56.887Z,12.40
2018-05-08T03:58:56.710Z,12.39
2018-05-08T03:59:56.725Z,12.43
2018-05-08T04:00:56.751Z,12.45
2018-05-08T04:01:56.766Z,12.45
2018-05-08T04:02:56.792Z,12.45
2018-05-08T04:03:56.803Z,12.48
2018-05-08T04:04:56.828Z,12.45
2018-05-08T04:05:56.843Z,12.43
2018-05-08T04:06:56.869Z,12.43
2018-05-08T04:07:56.883Z,12.43
2018-05-08T04:08:56.922Z,12.47
2018-05-08T04:09:57.124Z,12.43
2018-05-08T04:10:56.956Z,12.45
2018-05-08T04:11:56.962Z,12.43
2018-05-08T04:12:56.988Z,12.44
2018-05-08T04:13:57.003Z,12.47
2018-05-08T04:14:57.114Z,12.43
2018-05-08T04:15:57.044Z,12.44
2018-05-08T04:16:57.067Z,12.44
2018-05-08T04:17:57.079Z,12.43
2018-05-08T04:18:57.105Z,12.36
2018-05-08T04:19:57.127Z,12.43
2018-05-08T04:20:57.148Z,12.50
2018-05-08T04:21:57.171Z,12.47
2018-05-08T04:22:57.186Z,12.44
2018-05-08T04:23:57.411Z,12.53
2018-05-08T04:24:57.222Z,12.40
2018-05-08T04:25:57.237Z,12.39
2018-05-08T04:26:57.263Z,12.45
2018-05-08T04:27:57.278Z,12.51
2018-05-08T04:28:57.304Z,12.43
2018-05-08T04:29:57.329Z,12.53
2018-05-08T04:30:57.344Z,12.63
2018-05-08T04:31:57.368Z,12.48
2018-05-08T04:32:57.380Z,12.53
2018-05-08T04:33:57.407Z,12.58
2018-05-08T04:34:57.423Z,12.55
2018-05-08T04:35:57.448Z,12.55
2018-05-08T04:36:57.463Z,12.66
2018-05-08T04:37:57.499Z,12.55
2018-05-08T04:38:57.504Z,12.66
2018-05-08T04:39:57.525Z,12.63
2018-05-08T04:40:57.538Z,12.63
2018-05-08T04:41:57.565Z,12.70
2018-05-08T04:42:57.579Z,12.65
2018-05-08T04:43:57.604Z,12.68
2018-05-08T04:44:57.617Z,12.65
2018-05-08T04:45:57.644Z,12.69
2018-05-08T04:46:57.657Z,12.70
2018-05-08T04:47:57.891Z,12.76
2018-05-08T04:48:57.698Z,12.76
2018-05-08T04:49:57.723Z,12.73
2018-05-08T04:50:57.750Z,12.80
2018-05-08T04:51:57.762Z,12.78
2018-05-08T04:52:57.774Z,12.80
2018-05-08T04:53:57.801Z,12.83
2018-05-08T04:54:57.816Z,12.86
2018-05-08T04:55:57.877Z,12.88
2018-05-08T04:56:57.857Z,12.94
2018-05-08T04:57:57.882Z,12.95
2018-05-08T04:58:57.907Z,13.03
2018-05-08T04:59:57.922Z,12.99
2018-05-08T05:00:57.948Z,13.02
2018-05-08T05:01:57.961Z,13.05
2018-05-08T05:02:57.986Z,13.13
2018-05-08T05:03:57.999Z,13.16
2018-05-08T05:04:58.025Z,13.17
2018-05-08T05:05:58.041Z,13.08
2018-05-08T05:07:58.077Z,13.13
2018-05-08T05:08:58.105Z,13.21
2018-05-08T05:09:58.132Z,13.21
2018-05-08T05:10:58.192Z,13.23
2018-05-08T05:12:58.206Z,13.40
2018-05-08T05:13:58.209Z,13.40
2018-05-08T05:14:58.222Z,13.42
2018-05-08T05:15:58.246Z,13.43
2018-05-08T05:16:58.262Z,13.52
2018-05-08T05:17:58.287Z,13.61
2018-05-08T05:18:58.301Z,13.58
2018-05-08T05:19:58.326Z,13.61
2018-05-08T05:20:58.354Z,13.62
2018-05-08T05:21:58.368Z,13.64
2018-05-08T05:22:58.394Z,13.68
2018-05-08T05:23:58.407Z,13.80
2018-05-08T05:24:58.433Z,13.78
2018-05-08T05:25:58.450Z,13.79
2018-05-08T05:26:58.471Z,13.91
2018-05-08T05:27:58.485Z,13.86
2018-05-08T05:28:58.511Z,13.87
2018-05-08T05:29:58.564Z,13.95
2018-05-08T05:30:58.552Z,14.03
2018-05-08T05:31:58.578Z,14.05
2018-05-08T05:32:58.592Z,14.11
2018-05-08T05:33:58.614Z,14.18
2018-05-08T05:34:58.641Z,14.16
2018-05-08T05:35:58.655Z,14.18
2018-05-08T05:36:58.681Z,14.26
2018-05-08T05:37:58.700Z,14.34
2018-05-08T05:38:58.721Z,14.45
2018-05-08T05:39:58.739Z,14.43
2018-05-08T05:40:58.765Z,14.51
2018-05-08T05:41:58.787Z,14.49
2018-05-08T05:42:58.799Z,14.56
2018-05-08T05:43:58.825Z,14.53
2018-05-08T05:44:58.839Z,14.63
2018-05-08T05:45:58.868Z,14.63
2018-05-08T05:46:58.892Z,14.73
2018-05-08T05:47:58.912Z,14.78
2018-05-08T05:48:58.935Z,14.78
2018-05-08T05:49:58.958Z,14.86
2018-05-08T05:50:58.973Z,14.92
2018-05-08T05:51:58.998Z,14.96
2018-05-08T05:52:59.012Z,15.00
2018-05-08T05:53:59.035Z,15.02
2018-05-08T05:54:59.060Z,15.10
2018-05-08T05:55:59.076Z,15.14
2018-05-08T05:56:59.101Z,15.18
2018-05-08T05:57:59.129Z,15.32
2018-05-08T05:58:59.140Z,15.33
2018-05-08T05:59:59.173Z,15.29
2018-05-08T06:00:59.193Z,15.41
2018-05-08T06:01:59.207Z,15.50
2018-05-08T06:02:59.235Z,15.57
2018-05-08T06:03:59.245Z,15.63
2018-05-08T06:05:59.296Z,15.76
2018-05-08T06:06:59.311Z,15.84
2018-05-08T06:07:59.336Z,15.85
2018-05-08T06:08:59.362Z,15.83
2018-05-08T06:09:59.389Z,15.96
2018-05-08T06:10:59.400Z,15.96
2018-05-08T06:11:59.501Z,16.02
2018-05-08T06:12:59.455Z,16.02
2018-05-08T06:13:59.467Z,16.16
2018-05-08T06:14:59.493Z,16.18
2018-05-08T06:15:59.519Z,16.26
2018-05-08T06:16:59.532Z,16.31
2018-05-08T06:17:59.557Z,16.49
2018-05-08T06:18:59.583Z,16.54
2018-05-08T06:19:59.657Z,16.72
2018-05-08T06:20:59.623Z,16.83
2018-05-08T06:21:59.650Z,17.02
2018-05-08T06:22:59.675Z,17.14
2018-05-08T06:23:59.904Z,17.20
2018-05-08T06:24:59.731Z,17.39
2018-05-08T06:25:59.741Z,17.53
2018-05-08T06:26:59.766Z,17.73
2018-05-08T06:28:00.141Z,17.91
2018-05-08T06:28:59.818Z,18.11
2018-05-08T06:29:59.845Z,18.37
2018-05-08T06:30:59.870Z,18.63
2018-05-08T06:31:59.883Z,18.81
2018-05-08T06:32:59.910Z,19.07
2018-05-08T06:33:59.937Z,19.39
2018-05-08T06:34:59.964Z,19.55
2018-05-08T06:35:59.990Z,19.78
2018-05-08T06:37:00.020Z,20.00
2018-05-08T06:38:00.041Z,20.15
2018-05-08T06:39:00.104Z,20.33
2018-05-08T06:40:00.172Z,20.56
2018-05-08T06:41:00.321Z,20.70
2018-05-08T06:42:00.145Z,20.95
2018-05-08T06:43:00.172Z,21.07
2018-05-08T06:44:00.207Z,21.23
2018-05-08T06:45:00.583Z,21.40
2018-05-08T06:46:00.259Z,21.65
2018-05-08T06:47:00.637Z,21.80
2018-05-08T06:48:00.312Z,21.89
2018-05-08T06:49:00.342Z,22.21
2018-05-08T06:50:00.376Z,22.30
2018-05-08T06:51:00.603Z,22.53
2018-05-08T06:52:00.432Z,22.53
2018-05-08T06:53:00.454Z,22.84
2018-05-08T06:54:00.481Z,22.99
2018-05-08T06:55:00.753Z,23.16
2018-05-08T06:56:00.545Z,23.32
2018-05-08T06:58:00.596Z,23.63
2018-05-08T06:59:00.623Z,23.76
2018-05-08T07:00:00.667Z,23.84
2018-05-08T07:01:00.687Z,23.96
2018-05-08T07:02:00.719Z,24.09
2018-05-08T07:03:00.752Z,24.21
2018-05-08T07:04:00.778Z,24.41
2018-05-08T07:05:00.804Z,24.56
2018-05-08T07:06:00.843Z,24.62
2018-05-08T07:08:00.895Z,24.85
2018-05-08T07:09:01.282Z,25.00
2018-05-08T07:10:00.959Z,25.06
2018-05-08T07:11:00.986Z,25.15
2018-05-08T07:13:01.054Z,25.41
2018-05-08T07:14:01.087Z,25.62
2018-05-08T07:15:01.115Z,25.49
2018-05-08T07:16:01.293Z,25.71
2018-05-08T07:18:01.235Z,25.91
2018-05-08T07:19:01.242Z,25.98
2018-05-08T07:20:01.281Z,26.07
2018-05-08T07:21:01.307Z,26.08
2018-05-08T07:22:01.334Z,26.27
2018-05-08T07:23:01.372Z,26.36
2018-05-08T07:24:01.415Z,26.39
2018-05-08T07:25:01.436Z,26.44
2018-05-08T07:26:01.461Z,26.49
2018-05-08T07:27:01.509Z,26.63
2018-05-08T07:28:01.526Z,26.63
2018-05-08T07:29:01.566Z,26.73
2018-05-08T07:30:01.621Z,26.96
2018-05-08T07:31:01.663Z,26.98
2018-05-08T07:32:01.671Z,27.10
2018-05-08T07:33:01.697Z,27.08
2018-05-08T07:34:01.732Z,27.16
2018-05-08T07:35:01.759Z,27.26
2018-05-08T07:36:01.797Z,27.28
2018-05-08T07:37:01.833Z,27.29
2018-05-08T07:39:01.900Z,27.19
2018-05-08T07:40:01.953Z,27.22
2018-05-08T07:41:01.964Z,27.26
2018-05-08T07:42:02.002Z,27.30
2018-05-08T07:43:02.039Z,27.25
2018-05-08T07:44:02.067Z,27.29
2018-05-08T07:45:02.107Z,27.25
2018-05-08T07:46:02.145Z,27.26
2018-05-08T07:47:02.169Z,27.25
2018-05-08T07:48:02.208Z,27.28
2018-05-08T07:49:02.245Z,27.30
2018-05-08T07:50:02.274Z,27.38
2018-05-08T07:51:02.312Z,27.41
2018-05-08T07:52:02.351Z,27.45
2018-05-08T07:53:02.378Z,27.50
2018-05-08T07:54:02.413Z,27.72
2018-05-08T07:55:02.452Z,27.78
2018-05-08T07:56:02.478Z,27.76
2018-05-08T07:57:02.516Z,27.71
2018-05-08T07:58:02.554Z,27.78
2018-05-08T07:59:02.592Z,27.90
2018-05-08T08:00:02.619Z,27.90
2018-05-08T08:02:02.697Z,28.08
2018-05-08T08:03:02.734Z,27.98
2018-05-08T08:04:02.774Z,28.01
2018-05-08T08:05:02.799Z,28.00
2018-05-08T08:06:02.837Z,28.04
2018-05-08T08:07:02.876Z,28.00
2018-05-08T08:08:02.914Z,28.01
2018-05-08T08:09:03.155Z,27.94
2018-05-08T08:10:03.192Z,27.98
2018-05-08T08:12:03.054Z,28.01
2018-05-08T08:13:03.093Z,28.09
2018-05-08T08:14:03.134Z,28.06
2018-05-08T08:15:03.170Z,28.10
2018-05-08T08:16:03.196Z,28.10
2018-05-08T08:17:03.235Z,28.03
2018-05-08T08:18:03.273Z,28.00
2018-05-08T08:19:03.312Z,27.97
2018-05-08T08:20:03.338Z,27.82
2018-05-08T08:22:03.421Z,27.66
2018-05-08T08:23:03.441Z,27.71
2018-05-08T08:24:03.480Z,27.66
2018-05-08T08:25:03.521Z,27.30
2018-05-08T08:26:03.544Z,27.44
2018-05-08T08:27:03.582Z,27.29
2018-05-08T08:28:03.612Z,27.19
2018-05-08T08:29:03.695Z,27.10
2018-05-08T08:30:03.679Z,26.97
2018-05-08T08:31:03.712Z,26.86
2018-05-08T08:32:03.741Z,26.81
2018-05-08T08:33:03.776Z,26.67
2018-05-08T08:34:03.805Z,26.60
2018-05-08T08:35:03.849Z,26.52
2018-05-08T08:36:03.867Z,26.48
2018-05-08T08:37:03.904Z,26.33
2018-05-08T08:38:03.932Z,26.24
2018-05-08T08:39:03.960Z,26.07
2018-05-08T08:40:03.994Z,25.96
2018-05-08T08:41:04.021Z,25.92
2018-05-08T08:42:04.046Z,25.78
2018-05-08T08:43:04.095Z,25.71
2018-05-08T08:44:04.112Z,25.61
2018-05-08T08:45:04.341Z,25.48
2018-05-08T08:46:04.175Z,25.46
2018-05-08T08:47:04.202Z,25.40
2018-05-08T08:48:04.228Z,25.31
2018-05-08T08:49:04.255Z,25.25
2018-05-08T08:50:04.293Z,25.21
2018-05-08T08:51:04.318Z,25.16
2018-05-08T08:52:04.345Z,25.06
2018-05-08T08:53:04.372Z,25.09
2018-05-08T08:54:04.410Z,24.96
2018-05-08T08:55:04.435Z,24.94
2018-05-08T08:57:04.487Z,24.92
2018-05-08T08:58:04.876Z,24.97
2018-05-08T08:59:04.552Z,24.85
2018-05-08T09:00:04.578Z,24.85
2018-05-08T09:01:04.605Z,24.78
2018-05-08T09:02:04.642Z,24.84
2018-05-08T09:03:04.668Z,24.85
2018-05-08T09:04:04.701Z,24.85
2018-05-08T09:06:04.746Z,24.82
2018-05-08T09:07:04.833Z,24.74
2018-05-08T09:08:04.811Z,24.71
2018-05-08T09:09:04.836Z,24.68
2018-05-08T09:10:04.862Z,24.65
2018-05-08T09:11:04.889Z,24.69
2018-05-08T09:12:04.940Z,24.65
2018-05-08T09:13:04.952Z,24.68
2018-05-08T09:14:04.982Z,24.68
2018-05-08T09:15:05.005Z,24.68
2018-05-08T09:16:05.032Z,24.68
2018-05-08T09:17:05.070Z,24.69
2018-05-08T09:18:05.297Z,24.68
2018-05-08T09:19:05.122Z,24.61
2018-05-08T09:20:05.147Z,24.71
2018-05-08T09:21:05.187Z,24.74
2018-05-08T09:22:05.211Z,24.75
2018-05-08T09:25:05.305Z,24.71
2018-05-08T09:26:05.334Z,24.68
2018-05-08T09:28:05.380Z,24.74
2018-05-08T09:29:05.418Z,24.74
2018-05-08T09:30:05.445Z,24.71
2018-05-08T09:31:05.480Z,24.81
2018-05-08T09:32:05.496Z,24.74
2018-05-08T09:33:05.535Z,24.79
2018-05-08T09:34:05.561Z,24.81
2018-05-08T09:35:05.592Z,24.94
2018-05-08T09:36:05.624Z,25.00
2018-05-08T09:37:05.651Z,24.92
2018-05-08T09:38:05.677Z,24.93
2018-05-08T09:39:05.718Z,24.99
2018-05-08T09:40:05.746Z,24.99
2018-05-08T09:41:05.768Z,25.01
2018-05-08T09:42:05.853Z,24.96
2018-05-08T09:43:05.831Z,24.97
2018-05-08T09:44:06.208Z,24.99
2018-05-08T09:46:05.922Z,24.96
2018-05-08T09:47:05.960Z,25.06
2018-05-08T09:48:05.986Z,25.07
2018-05-08T09:49:06.310Z,25.15
2018-05-08T09:50:06.254Z,25.22
2018-05-08T09:51:06.092Z,25.33
2018-05-08T09:52:06.115Z,25.49
2018-05-08T09:53:06.156Z,25.66
2018-05-08T09:54:06.264Z,25.76
2018-05-08T09:55:06.434Z,25.89
2018-05-08T09:56:06.595Z,25.93
2018-05-08T09:57:06.486Z,26.13
2018-05-08T09:58:06.320Z,26.39
2018-05-08T10:00:06.390Z,26.51
2018-05-08T10:02:06.501Z,26.76
2018-05-08T10:03:06.489Z,26.98
2018-05-08T10:04:06.515Z,27.13
2018-05-08T10:05:06.758Z,27.28
2018-05-08T10:06:06.591Z,27.44
2018-05-08T10:07:06.631Z,27.47
2018-05-08T10:08:06.659Z,27.61
2018-05-08T10:09:06.695Z,27.61
2018-05-08T10:10:06.734Z,27.68
2018-05-08T10:11:06.776Z,27.93
2018-05-08T10:12:06.798Z,28.06
2018-05-08T10:14:06.875Z,28.38
2018-05-08T10:15:06.912Z,28.82
2018-05-08T10:16:06.951Z,28.87
2018-05-08T10:17:06.999Z,28.93
2018-05-08T10:18:07.037Z,29.03
2018-05-08T10:19:07.269Z,29.31
2018-05-08T10:20:07.105Z,29.59
2018-05-08T10:21:07.142Z,29.61
2018-05-08T10:22:07.385Z,29.81
2018-05-08T10:23:07.221Z,30.05
2018-05-08T10:24:07.463Z,30.16
2018-05-08T10:25:07.296Z,30.44
2018-05-08T10:26:07.539Z,30.63
2018-05-08T10:27:07.375Z,30.95
2018-05-08T10:28:07.471Z,31.07
2018-05-08T10:29:07.464Z,31.14
2018-05-08T10:30:07.514Z,31.39
2018-05-08T10:31:07.541Z,31.47
2018-05-08T10:32:07.578Z,31.45
2018-05-08T10:33:07.696Z,31.54
2018-05-08T10:34:07.671Z,31.70
2018-05-08T10:35:07.706Z,31.98
2018-05-08T10:36:07.792Z,32.07
2018-05-08T10:37:07.783Z,32.11
2018-05-08T10:38:07.822Z,32.19
2018-05-08T10:39:07.862Z,32.26
2018-05-08T10:40:07.911Z,32.30
2018-05-08T10:41:08.157Z,32.38
2018-05-08T10:44:08.078Z,32.63
2018-05-08T10:45:08.117Z,32.71
2018-05-08T10:46:08.155Z,33.01
2018-05-08T10:47:08.192Z,33.08
2018-05-08T10:48:08.232Z,33.09
2018-05-08T10:49:08.282Z,33.33
2018-05-08T10:50:08.334Z,33.53
2018-05-08T10:51:08.563Z,33.40
2018-05-08T10:52:08.403Z,33.65
2018-05-08T10:53:08.449Z,33.72
2018-05-08T10:54:08.487Z,33.85
2018-05-08T10:55:08.526Z,33.91
2018-05-08T10:56:08.586Z,33.97
2018-05-08T10:57:08.615Z,34.18
2018-05-08T10:58:08.655Z,34.46
2018-05-08T10:59:08.897Z,34.56
2018-05-08T11:00:08.744Z,34.60
2018-05-08T11:01:08.782Z,34.69
2018-05-08T11:02:08.821Z,34.66
2018-05-08T11:03:08.871Z,34.83
2018-05-08T11:04:08.910Z,34.69
2018-05-08T11:05:08.948Z,34.94
2018-05-08T11:06:09.349Z,34.97
2018-05-08T11:07:09.054Z,34.88
2018-05-08T11:08:09.076Z,35.03
2018-05-08T11:09:09.117Z,35.01
2018-05-08T11:10:09.166Z,35.16
2018-05-08T11:11:09.206Z,35.27
2018-05-08T11:13:09.643Z,35.45
2018-05-08T11:14:09.332Z,35.68
2018-05-08T11:15:09.573Z,35.68
2018-05-08T11:16:09.423Z,35.52
2018-05-08T11:17:09.460Z,35.68
2018-05-08T11:18:09.498Z,35.71
2018-05-08T11:19:09.561Z,35.87
2018-05-08T11:20:09.588Z,35.88
2018-05-08T11:21:09.639Z,36.05
2018-05-08T11:22:09.677Z,36.01
2018-05-08T11:23:09.720Z,36.03
2018-05-08T11:24:09.753Z,36.20
2018-05-08T11:25:09.804Z,36.33
2018-05-08T11:26:09.844Z,36.36
2018-05-08T11:27:09.883Z,36.51
2018-05-08T11:28:09.934Z,36.73
2018-05-08T11:29:09.972Z,36.80
2018-05-08T11:30:10.023Z,36.75
2018-05-08T11:31:10.060Z,36.92
2018-05-08T11:32:10.099Z,36.85
2018-05-08T11:33:10.150Z,36.92
2018-05-08T11:34:10.188Z,36.97
2018-05-08T11:36:10.483Z,36.72
2018-05-08T11:37:10.316Z,36.81
2018-05-08T11:38:10.367Z,36.73
2018-05-08T11:39:10.446Z,36.62
2018-05-08T11:40:10.444Z,36.72
2018-05-08T11:41:10.496Z,36.84
2018-05-08T11:42:10.736Z,36.92
2018-05-08T11:43:10.584Z,36.89
2018-05-08T11:44:10.622Z,36.96
2018-05-08T11:45:10.662Z,36.94
2018-05-08T11:48:10.815Z,37.09
2018-05-08T11:49:10.843Z,36.99
2018-05-08T11:51:10.930Z,36.97
2018-05-08T11:52:10.969Z,36.80
2018-05-08T11:53:11.007Z,36.72
2018-05-08T11:54:11.058Z,36.75
2018-05-08T11:55:11.097Z,36.85
2018-05-08T11:56:11.148Z,36.89
2018-05-08T11:57:11.186Z,36.96
2018-05-08T11:58:11.224Z,36.99
2018-05-08T11:59:11.281Z,36.94
2018-05-08T12:00:11.313Z,36.96
2018-05-08T12:01:11.352Z,36.78
2018-05-08T12:02:11.404Z,36.85
2018-05-08T12:03:11.443Z,36.91
2018-05-08T12:04:11.511Z,36.73
2018-05-08T12:05:11.531Z,36.81
2018-05-08T12:07:11.619Z,36.65
2018-05-08T12:08:11.658Z,36.66
2018-05-08T12:09:11.727Z,36.66
2018-05-08T12:10:11.747Z,36.67
2018-05-08T12:11:11.801Z,36.69
2018-05-08T12:13:11.882Z,36.57
2018-05-08T12:14:11.914Z,36.45
2018-05-08T12:15:11.953Z,36.54
2018-05-08T12:16:12.005Z,36.44
2018-05-08T12:17:12.043Z,36.38
2018-05-08T12:18:12.094Z,36.38
2018-05-08T12:19:12.121Z,36.38
2018-05-08T12:20:12.171Z,36.47
2018-05-08T12:21:12.208Z,36.65
2018-05-08T12:22:12.247Z,36.57
2018-05-08T12:23:12.298Z,36.60
2018-05-08T12:24:12.338Z,36.70
2018-05-08T12:25:12.387Z,36.66
2018-05-08T12:26:12.776Z,36.54
2018-05-08T12:27:12.464Z,36.36
2018-05-08T12:28:12.504Z,36.38
2018-05-08T12:30:12.591Z,36.29
2018-05-08T12:31:12.678Z,36.22
2018-05-08T12:32:12.682Z,36.35
2018-05-08T12:33:12.708Z,36.45
2018-05-08T12:34:12.760Z,36.51
2018-05-08T12:35:12.802Z,36.47
2018-05-08T12:36:12.887Z,36.47
2018-05-08T12:37:12.887Z,36.36
2018-05-08T12:38:12.926Z,36.44
2018-05-08T12:39:12.964Z,36.44
2018-05-08T12:40:13.014Z,36.24
2018-05-08T12:41:13.052Z,36.20
2018-05-08T12:42:13.152Z,36.22
2018-05-08T12:43:13.129Z,36.31
2018-05-08T12:44:13.168Z,36.31
2018-05-08T12:45:13.220Z,36.18
2018-05-08T12:46:13.270Z,36.17
2018-05-08T12:47:13.296Z,36.31
2018-05-08T12:48:13.334Z,36.36
2018-05-08T12:49:13.385Z,36.20
2018-05-08T12:50:13.426Z,36.24
2018-05-08T12:51:13.462Z,36.11
2018-05-08T12:52:13.502Z,36.20
2018-05-08T12:53:13.540Z,36.26
2018-05-08T12:54:13.602Z,36.24
2018-05-08T12:55:13.629Z,36.31
2018-05-08T12:56:13.741Z,36.25
2018-05-08T12:57:13.710Z,36.33
2018-05-08T12:58:13.761Z,36.03
2018-05-08T12:59:13.795Z,35.94
2018-05-08T13:00:13.835Z,35.90
2018-05-08T13:02:13.912Z,35.90
2018-05-08T13:03:13.962Z,35.91
2018-05-08T13:04:13.999Z,36.03
2018-05-08T13:05:14.058Z,36.13
2018-05-08T13:06:14.076Z,36.11
2018-05-08T13:07:14.116Z,36.09
2018-05-08T13:08:14.169Z,35.97
2018-05-08T13:09:14.206Z,36.05
2018-05-08T13:10:14.243Z,36.01
2018-05-08T13:11:14.280Z,35.93
2018-05-08T13:12:14.333Z,35.87
2018-05-08T13:13:14.371Z,35.78
2018-05-08T13:14:14.408Z,35.84
2018-05-08T13:16:14.486Z,35.79
2018-05-08T13:17:14.526Z,35.75
2018-05-08T13:18:14.580Z,35.72
2018-05-08T13:19:14.613Z,35.76
2018-05-08T13:20:14.652Z,35.72
2018-05-08T13:21:14.691Z,35.72
2018-05-08T13:22:14.740Z,35.68
2018-05-08T13:23:14.780Z,35.75
2018-05-08T13:24:14.881Z,35.68
2018-05-08T13:25:14.859Z,35.74
2018-05-08T13:26:14.896Z,35.54
2018-05-08T13:27:14.935Z,35.59
2018-05-08T13:28:14.972Z,35.37
2018-05-08T13:29:15.038Z,35.23
2018-05-08T13:30:15.264Z,35.20
2018-05-08T13:31:15.232Z,35.08
2018-05-08T13:32:15.141Z,35.16
2018-05-08T13:34:15.217Z,35.05
2018-05-08T13:35:15.262Z,34.94